Terminal Aerodrome Forecast
Issued by NWS Amarillo, TX

Home | Current Version | Previous Version | Text Only | Print | Product List | Glossary On
Versions: 1 2 3 4 5 6 7 8 9 10 11 12 13 14 15 16 17
000
FTUS44 KAMA 232300
TAFAMA
TAF
KAMA 232327Z 2400/2424 16008KT P6SM FEW090
     FM241000 21011KT P6SM FEW090=

USA.gov is the U.S. government's official web portal to all federal, state and local government web resources and services.